EST,Max TemperatureF,Mean TemperatureF,Min TemperatureF,Max Dew PointF,MeanDew PointF,Min DewpointF,Max Humidity, Mean Humidity, Min Humidity, Max Sea Level PressureIn, Mean Sea Level PressureIn, Min Sea Level PressureIn, Max VisibilityMiles, Mean VisibilityMiles, Min VisibilityMiles, Max Wind SpeedMPH, Mean Wind SpeedMPH, Max Gust SpeedMPH,PrecipitationIn, CloudCover, Events, WindDirDegrees
2013-12-1,50,44,39,47,41,27,97,84,60,30.44,30.14,29.97,10,8,0,16,12,,0.07,5,Fog-Rain,144
2013-12-2,46,42,39,45,41,37,100,94,86,29.97,29.95,29.89,10,6,0,13,7,,0.00,8,Fog,334
2013-12-3,44,40,37,39,38,34,93,85,76,29.93,29.86,29.80,10,10,10,21,13,28,0.00,6,,341
2013-12-4,45,38,30,34,31,28,96,76,52,30.22,30.10,29.95,10,10,5,13,7,,0.00,0,,301
2013-12-5,52,44,36,51,46,35,100,92,82,30.23,30.10,30.00,10,5,0,15,9,23,0.00,7,Fog,156
2013-12-6,55,47,39,54,49,37,100,96,80,30.10,29.97,29.92,10,4,0,22,11,29,0.23,8,Fog-Rain,255
2013-12-7,39,37,34,37,33,17,93,81,50,30.43,30.17,30.03,10,8,2,22,17,29,0.28,6,Rain,348
2013-12-8,36,33,30,25,20,15,67,58,46,30.56,30.51,30.43,10,10,10,17,11,20,0.00,4,,5
2013-12-9,51,42,34,50,41,26,100,91,70,30.45,30.06,29.87,10,6,0,24,14,39,0.33,8,Fog-Rain-Snow,179
2013-12-10,39,36,30,36,31,18,93,84,59,30.02,29.88,29.79,10,7,1,20,10,34,0.19,6,Snow,311
2013-12-11,34,31,28,24,20,12,69,61,49,30.26,30.17,30.05,10,10,10,21,15,29,0.00,4,,283
2013-12-12,32,26,21,17,8,1,66,48,35,30.25,30.19,30.11,10,10,10,22,14,30,0.00,3,,309
2013-12-13,34,29,24,21,15,10,80,57,37,30.33,30.11,30.02,10,9,2,28,13,36,0.00,4,Snow,297
2013-12-14,35,28,23,33,22,9,93,76,53,30.53,30.38,30.10,10,5,1,26,15,34,0.04,8,Rain-Snow,58
2013-12-15,51,42,32,52,38,19,100,87,56,30.01,29.56,29.35,10,6,1,30,23,43,0.83,6,Rain,228
2013-12-16,35,30,26,24,13,5,73,48,37,30.21,29.99,29.79,10,10,10,20,12,31,0.00,3,,298
2013-12-17,45,33,21,42,26,9,100,76,49,30.26,30.05,29.84,10,8,2,21,11,29,0.15,6,Rain-Snow,26
2013-12-18,37,32,26,36,27,19,100,80,54,30.11,29.88,29.75,10,8,1,28,16,37,0.00,5,Snow,313
2013-12-19,48,40,33,37,30,20,74,65,54,30.14,30.10,30.02,10,10,9,23,15,31,0.00,2,,258
2013-12-20,50,42,33,44,38,29,97,88,76,30.15,30.09,30.01,10,7,2,14,6,,0.00,1,,192
2013-12-21,51,48,44,49,47,44,100,95,86,30.05,30.01,29.98,8,4,2,16,10,,0.01,4,,215
2013-12-22,55,52,48,55,51,48,100,96,83,30.03,29.96,29.91,10,2,0,26,16,34,0.00,7,Fog,217
2013-12-23,52,46,39,52,46,39,100,97,86,30.05,30.01,29.93,10,3,0,16,7,23,0.09,8,Fog-Rain,274
2013-12-24,39,34,30,39,32,18,100,84,56,30.18,30.05,29.98,10,9,6,23,16,30,0.47,7,Rain-Snow,346
2013-12-25,30,26,21,19,14,9,80,64,49,30.55,30.43,30.18,10,10,8,21,14,29,0.00,6,Snow,325
2013-12-26,42,33,24,40,30,19,93,79,59,30.48,30.24,30.02,10,9,3,16,8,25,0.22,6,Rain,221
2013-12-27,37,32,28,24,22,20,72,65,52,30.29,30.25,30.22,10,10,10,18,10,25,0.00,0,,287
2013-12-28,50,40,30,39,33,21,93,74,59,30.26,30.15,30.06,10,9,2,21,11,28,0.00,0,,251
2013-12-29,53,46,39,54,44,37,100,94,86,30.07,29.71,29.34,10,5,2,28,12,39,0.75,6,Rain,193
2013-12-30,45,38,28,43,31,16,93,74,46,30.11,29.84,29.41,10,10,10,23,15,32,0.00,3,Rain,302
2013-12-31,28,26,25,23,17,10,86,66,47,30.17,30.09,30.03,10,8,2,17,12,23,0.00,5,Snow,316